Chesterfield, United Kingdom
Current Conditions -  °F | °C
As of 6:50 AM on Friday 28 Nov 2014 (Local Time) from EGCN Reporting Station
Haze Haze  
Wind Chill:   Ceiling: 4300
Heat Index:   Visibility: 2.8mi
Dew Point:   Wind: 5mph
Humidity: 100%   Direction: 70°ENE
Pressure: 29.68"   Gusts: NA
Location:  53.26°N, 1.39°W
Report Text: EGCN 280650Z 07004KT 040V100 4500 BR FEW026 BKN043 09/09 Q1005
Loading
Personal Weather Stations






























Interactive Weather Map New forecast layout! Learn more

10-Day Weather Forecast

Advertisements
Track Severe Weather on mobile